createdAt,value
2018-03-24T00:00:47.705Z,3.08
2018-03-24T00:01:47.604Z,3.10
2018-03-24T00:02:47.486Z,3.13
2018-03-24T00:03:47.381Z,3.13
2018-03-24T00:04:47.278Z,3.10
2018-03-24T00:05:47.175Z,3.08
2018-03-24T00:06:47.072Z,3.13
2018-03-24T00:07:46.968Z,3.13
2018-03-24T00:08:46.865Z,3.01
2018-03-24T00:09:46.753Z,3.08
2018-03-24T00:10:46.647Z,3.07
2018-03-24T00:11:46.543Z,3.03
2018-03-24T00:12:46.440Z,3.11
2018-03-24T00:13:46.339Z,3.04
2018-03-24T00:14:46.234Z,3.03
2018-03-24T00:15:46.131Z,3.01
2018-03-24T00:16:46.015Z,3.08
2018-03-24T00:17:45.912Z,3.05
2018-03-24T00:18:45.808Z,3.01
2018-03-24T00:19:45.704Z,3.07
2018-03-24T00:20:45.600Z,3.05
2018-03-24T00:21:45.497Z,3.01
2018-03-24T00:22:45.395Z,3.04
2018-03-24T00:23:45.303Z,3.08
2018-03-24T00:24:45.175Z,3.11
2018-03-24T00:25:45.071Z,3.01
2018-03-24T00:26:44.971Z,3.03
2018-03-24T00:27:44.866Z,3.05
2018-03-24T00:28:44.761Z,3.05
2018-03-24T00:29:44.960Z,3.10
2018-03-24T00:30:44.556Z,3.07
2018-03-24T00:31:44.440Z,3.05
2018-03-24T00:32:44.336Z,3.03
2018-03-24T00:33:44.232Z,2.92
2018-03-24T00:34:44.129Z,3.07
2018-03-24T00:35:44.026Z,3.11
2018-03-24T00:36:43.922Z,3.04
2018-03-24T00:37:43.821Z,3.05
2018-03-24T00:38:43.715Z,2.98
2018-03-24T00:39:43.600Z,2.95
2018-03-24T00:40:43.498Z,2.90
2018-03-24T00:41:43.394Z,2.97
2018-03-24T00:42:43.291Z,3.00
2018-03-24T00:43:43.188Z,2.93
2018-03-24T00:44:43.083Z,3.03
2018-03-24T00:45:42.983Z,3.01
2018-03-24T00:46:42.867Z,3.00
2018-03-24T00:47:42.763Z,2.93
2018-03-24T00:48:42.658Z,3.01
2018-03-24T00:49:42.555Z,3.04
2018-03-24T00:50:42.450Z,3.03
2018-03-24T00:51:42.386Z,3.01
2018-03-24T00:52:42.245Z,3.07
2018-03-24T00:53:42.129Z,3.10
2018-03-24T00:54:42.027Z,3.04
2018-03-24T00:55:41.923Z,3.10
2018-03-24T00:56:41.826Z,3.07
2018-03-24T00:57:41.715Z,3.01
2018-03-24T00:58:41.612Z,3.00
2018-03-24T00:59:41.510Z,3.08
2018-03-24T01:00:41.394Z,3.03
2018-03-24T01:01:41.290Z,3.03
2018-03-24T01:02:41.186Z,3.03
2018-03-24T01:03:41.083Z,3.05
2018-03-24T01:04:40.979Z,3.04
2018-03-24T01:05:40.880Z,3.04
2018-03-24T01:06:40.772Z,3.07
2018-03-24T01:07:40.658Z,3.01
2018-03-24T01:08:40.555Z,3.05
2018-03-24T01:09:40.452Z,3.08
2018-03-24T01:10:40.348Z,3.05
2018-03-24T01:11:40.247Z,3.04
2018-03-24T01:12:40.141Z,3.08
2018-03-24T01:13:40.037Z,3.07
2018-03-24T01:14:39.923Z,3.07
2018-03-24T01:15:39.817Z,3.04
2018-03-24T01:16:39.714Z,3.03
2018-03-24T01:17:39.611Z,3.05
2018-03-24T01:18:39.508Z,3.04
2018-03-24T01:19:39.405Z,3.03
2018-03-24T01:20:39.301Z,3.04
2018-03-24T01:21:39.189Z,2.95
2018-03-24T01:22:39.083Z,3.03
2018-03-24T01:23:38.979Z,2.98
2018-03-24T01:24:38.876Z,3.01
2018-03-24T01:25:38.785Z,3.05
2018-03-24T01:26:38.670Z,2.93
2018-03-24T01:27:38.556Z,2.95
2018-03-24T01:28:38.450Z,3.00
2018-03-24T01:29:38.346Z,2.97
2018-03-24T01:30:38.243Z,2.97
2018-03-24T01:31:38.145Z,2.97
2018-03-24T01:32:38.036Z,2.92
2018-03-24T01:33:37.933Z,2.90
2018-03-24T01:34:37.833Z,2.90
2018-03-24T01:35:37.714Z,2.93
2018-03-24T01:36:37.612Z,2.90
2018-03-24T01:37:37.506Z,2.98
2018-03-24T01:38:37.405Z,2.93
2018-03-24T01:39:37.301Z,2.98
2018-03-24T01:40:37.199Z,2.95
2018-03-24T01:41:37.085Z,2.92
2018-03-24T01:42:36.978Z,2.92
2018-03-24T01:43:36.875Z,2.89
2018-03-24T01:44:36.772Z,2.92
2018-03-24T01:45:36.668Z,2.89
2018-03-24T01:46:36.567Z,2.85
2018-03-24T01:47:36.475Z,2.89
2018-03-24T01:48:36.346Z,2.86
2018-03-24T01:49:36.244Z,2.89
2018-03-24T01:50:36.141Z,2.82
2018-03-24T01:51:36.037Z,2.85
2018-03-24T01:52:35.933Z,2.83
2018-03-24T01:53:35.830Z,2.83
2018-03-24T01:54:35.720Z,2.71
2018-03-24T01:55:35.610Z,2.79
2018-03-24T01:56:35.507Z,2.80
2018-03-24T01:57:35.404Z,2.82
2018-03-24T01:58:35.300Z,2.75
2018-03-24T01:59:35.196Z,2.79
2018-03-24T02:00:35.093Z,2.75
2018-03-24T02:01:34.978Z,2.74
2018-03-24T02:02:34.874Z,2.77
2018-03-24T02:03:34.772Z,2.69
2018-03-24T02:04:34.668Z,2.74
2018-03-24T02:05:34.565Z,2.60
2018-03-24T02:06:34.461Z,2.62
2018-03-24T02:07:34.345Z,2.61
2018-03-24T02:08:34.244Z,2.57
2018-03-24T02:09:34.138Z,2.57
2018-03-24T02:10:34.035Z,2.47
2018-03-24T02:11:33.932Z,2.47
2018-03-24T02:12:33.829Z,2.39
2018-03-24T02:13:33.713Z,2.54
2018-03-24T02:14:33.610Z,2.47
2018-03-24T02:15:33.512Z,2.47
2018-03-24T02:16:33.404Z,2.42
2018-03-24T02:17:33.301Z,2.33
2018-03-24T02:18:33.184Z,2.47
2018-03-24T02:19:33.080Z,2.43
2018-03-24T02:20:32.977Z,2.43
2018-03-24T02:21:32.874Z,2.36
2018-03-24T02:22:32.770Z,2.38
2018-03-24T02:23:32.656Z,2.33
2018-03-24T02:24:32.552Z,2.35
2018-03-24T02:25:32.449Z,2.38
2018-03-24T02:26:32.349Z,2.38
2018-03-24T02:27:32.242Z,2.31
2018-03-24T02:28:32.127Z,2.33
2018-03-24T02:29:32.022Z,2.33
2018-03-24T02:30:31.919Z,2.35
2018-03-24T02:31:31.817Z,2.29
2018-03-24T02:32:31.713Z,2.26
2018-03-24T02:33:31.598Z,2.28
2018-03-24T02:34:31.495Z,2.25
2018-03-24T02:35:31.392Z,2.25
2018-03-24T02:36:31.288Z,2.28
2018-03-24T02:37:31.194Z,2.36
2018-03-24T02:38:31.069Z,2.33
2018-03-24T02:39:30.965Z,2.39
2018-03-24T02:40:30.900Z,2.36
2018-03-24T02:41:30.758Z,2.35
2018-03-24T02:42:30.655Z,2.33
2018-03-24T02:43:30.539Z,2.39
2018-03-24T02:44:30.444Z,2.44
2018-03-24T02:45:30.334Z,2.39
2018-03-24T02:46:30.229Z,2.39
2018-03-24T02:47:30.126Z,2.44
2018-03-24T02:48:30.012Z,2.49
2018-03-24T02:49:29.909Z,2.46
2018-03-24T02:50:29.803Z,2.47
2018-03-24T02:51:29.700Z,2.46
2018-03-24T02:52:29.596Z,2.49
2018-03-24T02:53:29.495Z,2.54
2018-03-24T02:54:29.381Z,2.49
2018-03-24T02:55:29.274Z,2.51
2018-03-24T02:56:29.171Z,2.53
2018-03-24T02:57:29.069Z,2.56
2018-03-24T02:58:28.964Z,2.57
2018-03-24T02:59:28.913Z,2.51
2018-03-24T03:00:28.744Z,2.53
2018-03-24T03:01:28.664Z,2.38
2018-03-24T03:02:28.551Z,2.43
2018-03-24T03:03:28.452Z,2.42
2018-03-24T03:04:28.320Z,2.43
2018-03-24T03:05:28.216Z,2.39
2018-03-24T03:06:28.113Z,2.43
2018-03-24T03:07:28.010Z,2.50
2018-03-24T03:08:27.906Z,2.42
2018-03-24T03:09:27.792Z,2.44
2018-03-24T03:10:27.686Z,2.39
2018-03-24T03:11:27.585Z,2.39
2018-03-24T03:12:27.480Z,2.42
2018-03-24T03:13:27.376Z,2.42
2018-03-24T03:14:27.273Z,2.43
2018-03-24T03:15:27.158Z,2.38
2018-03-24T03:16:27.055Z,2.46
2018-03-24T03:17:26.951Z,2.44
2018-03-24T03:18:26.848Z,2.43
2018-03-24T03:19:26.744Z,2.36
2018-03-24T03:20:26.628Z,2.43
2018-03-24T03:21:26.525Z,2.43
2018-03-24T03:22:26.422Z,2.39
2018-03-24T03:23:26.318Z,2.39
2018-03-24T03:24:26.204Z,2.38
2018-03-24T03:25:26.100Z,2.38
2018-03-24T03:26:25.997Z,2.36
2018-03-24T03:27:25.893Z,2.25
2018-03-24T03:28:25.790Z,2.28
2018-03-24T03:29:25.678Z,2.31
2018-03-24T03:30:25.571Z,2.24
2018-03-24T03:31:25.473Z,2.20
2018-03-24T03:32:25.363Z,2.32
2018-03-24T03:33:25.260Z,2.33
2018-03-24T03:34:25.145Z,2.32
2018-03-24T03:35:25.042Z,2.36
2018-03-24T03:36:24.938Z,2.32
2018-03-24T03:37:24.835Z,2.36
2018-03-24T03:38:24.719Z,2.31
2018-03-24T03:39:24.869Z,2.36
2018-03-24T03:40:24.512Z,2.33
2018-03-24T03:41:24.408Z,2.31
2018-03-24T03:42:24.305Z,2.26
2018-03-24T03:43:24.190Z,2.29
2018-03-24T03:44:24.087Z,2.42
2018-03-24T03:45:23.983Z,2.38
2018-03-24T03:46:23.880Z,2.42
2018-03-24T03:47:23.778Z,2.39
2018-03-24T03:48:23.660Z,2.42
2018-03-24T03:49:23.556Z,2.43
2018-03-24T03:50:23.453Z,2.39
2018-03-24T03:51:23.354Z,2.42
2018-03-24T03:52:23.235Z,2.43
2018-03-24T03:53:23.131Z,2.39
2018-03-24T03:54:23.029Z,2.42
2018-03-24T03:55:22.925Z,2.44
2018-03-24T03:56:22.810Z,2.43
2018-03-24T03:57:22.705Z,2.47
2018-03-24T03:58:22.602Z,2.44
2018-03-24T03:59:22.499Z,2.50
2018-03-24T04:00:22.395Z,2.49
2018-03-24T04:01:22.292Z,2.49
2018-03-24T04:02:22.188Z,2.50
2018-03-24T04:03:22.074Z,2.43
2018-03-24T04:04:21.970Z,2.51
2018-03-24T04:05:21.867Z,2.46
2018-03-24T04:06:21.752Z,2.47
2018-03-24T04:07:21.648Z,2.61
2018-03-24T04:08:21.545Z,2.46
2018-03-24T04:09:21.442Z,2.51
2018-03-24T04:10:21.337Z,2.51
2018-03-24T04:11:21.223Z,2.49
2018-03-24T04:12:21.120Z,2.47
2018-03-24T04:13:21.016Z,2.49
2018-03-24T04:14:20.913Z,2.56
2018-03-24T04:15:20.812Z,2.56
2018-03-24T04:16:20.705Z,2.61
2018-03-24T04:17:20.595Z,2.49
2018-03-24T04:18:20.486Z,2.57
2018-03-24T04:19:20.382Z,2.46
2018-03-24T04:20:20.279Z,2.51
2018-03-24T04:21:20.175Z,2.60
2018-03-24T04:22:20.066Z,2.60
2018-03-24T04:23:19.958Z,2.57
2018-03-24T04:24:20.106Z,2.60
2018-03-24T04:25:19.751Z,2.62
2018-03-24T04:26:19.648Z,2.61
2018-03-24T04:27:19.533Z,2.57
2018-03-24T04:28:19.427Z,2.54
2018-03-24T04:29:19.325Z,2.44
2018-03-24T04:30:19.221Z,2.46
2018-03-24T04:31:19.118Z,2.61
2018-03-24T04:32:19.016Z,2.51
2018-03-24T04:33:18.899Z,2.62
2018-03-24T04:34:18.798Z,2.62
2018-03-24T04:35:18.692Z,2.61
2018-03-24T04:36:18.589Z,2.60
2018-03-24T04:37:18.487Z,2.67
2018-03-24T04:38:18.383Z,2.69
2018-03-24T04:39:18.266Z,2.71
2018-03-24T04:40:18.162Z,2.72
2018-03-24T04:41:18.061Z,2.72
2018-03-24T04:42:17.961Z,2.72
2018-03-24T04:43:17.852Z,2.69
2018-03-24T04:44:17.741Z,2.71
2018-03-24T04:45:17.635Z,2.80
2018-03-24T04:46:17.530Z,2.77
2018-03-24T04:47:17.427Z,2.62
2018-03-24T04:48:17.330Z,2.82
2018-03-24T04:49:17.221Z,2.79
2018-03-24T04:50:17.105Z,2.75
2018-03-24T04:51:17.001Z,2.82
2018-03-24T04:52:16.911Z,2.68
2018-03-24T04:53:16.795Z,2.77
2018-03-24T04:54:16.704Z,2.75
2018-03-24T04:55:16.576Z,2.79
2018-03-24T04:56:16.473Z,2.75
2018-03-24T04:57:16.370Z,2.82
2018-03-24T04:58:16.272Z,2.75
2018-03-24T04:59:16.162Z,2.75
2018-03-24T05:00:16.060Z,2.80
2018-03-24T05:01:15.944Z,2.62
2018-03-24T05:02:15.839Z,2.75
2018-03-24T05:03:15.735Z,2.77
2018-03-24T05:04:15.633Z,2.72
2018-03-24T05:05:15.529Z,2.74
2018-03-24T05:06:15.426Z,2.82
2018-03-24T05:07:15.312Z,2.77
2018-03-24T05:08:15.208Z,2.82
2018-03-24T05:09:15.104Z,2.74
2018-03-24T05:10:15.001Z,2.75
2018-03-24T05:11:14.898Z,2.75
2018-03-24T05:12:14.800Z,2.83
2018-03-24T05:13:14.678Z,2.82
2018-03-24T05:14:14.890Z,2.82
2018-03-24T05:15:14.472Z,2.79
2018-03-24T05:16:14.368Z,2.86
2018-03-24T05:17:14.265Z,2.80
2018-03-24T05:18:14.150Z,2.83
2018-03-24T05:19:14.046Z,2.85
2018-03-24T05:20:13.943Z,2.83
2018-03-24T05:21:13.840Z,2.85
2018-03-24T05:22:13.737Z,2.85
2018-03-24T05:23:13.634Z,2.83
2018-03-24T05:24:13.766Z,2.85
2018-03-24T05:25:13.413Z,2.83
2018-03-24T05:26:13.338Z,2.82
2018-03-24T05:27:13.206Z,2.87
2018-03-24T05:28:13.103Z,2.95
2018-03-24T05:29:13.000Z,2.89
2018-03-24T05:30:12.897Z,2.89
2018-03-24T05:31:12.784Z,2.90
2018-03-24T05:32:12.678Z,3.00
2018-03-24T05:33:12.575Z,2.92
2018-03-24T05:34:12.472Z,2.93
2018-03-24T05:35:12.368Z,2.95
2018-03-24T05:36:12.253Z,3.07
2018-03-24T05:37:12.149Z,3.10
2018-03-24T05:38:12.045Z,3.03
2018-03-24T05:39:11.942Z,2.98
2018-03-24T05:40:11.851Z,3.03
2018-03-24T05:41:11.735Z,3.03
2018-03-24T05:42:11.632Z,3.03
2018-03-24T05:43:11.518Z,3.07
2018-03-24T05:44:11.414Z,3.04
2018-03-24T05:45:11.310Z,3.08
2018-03-24T05:46:11.208Z,3.13
2018-03-24T05:47:11.106Z,3.10
2018-03-24T05:48:10.999Z,3.11
2018-03-24T05:49:10.889Z,3.08
2018-03-24T05:50:10.781Z,3.04
2018-03-24T05:51:10.678Z,3.14
2018-03-24T05:52:10.574Z,3.16
2018-03-24T05:53:10.484Z,3.19
2018-03-24T05:54:10.367Z,3.23
2018-03-24T05:55:10.264Z,3.25
2018-03-24T05:56:10.149Z,3.19
2018-03-24T05:57:10.045Z,3.18
2018-03-24T05:58:09.942Z,3.23
2018-03-24T05:59:09.839Z,3.25
2018-03-24T06:00:09.736Z,3.21
2018-03-24T06:01:09.632Z,3.31
2018-03-24T06:02:09.528Z,3.23
2018-03-24T06:03:09.414Z,3.22
2018-03-24T06:04:09.310Z,3.26
2018-03-24T06:05:09.205Z,3.32
2018-03-24T06:06:09.102Z,3.29
2018-03-24T06:07:08.999Z,3.34
2018-03-24T06:08:08.896Z,3.37
2018-03-24T06:09:08.801Z,3.29
2018-03-24T06:10:08.721Z,3.31
2018-03-24T06:11:08.574Z,3.32
2018-03-24T06:12:08.471Z,3.41
2018-03-24T06:13:08.368Z,3.41
2018-03-24T06:14:08.265Z,3.37
2018-03-24T06:15:08.162Z,3.36
2018-03-24T06:16:08.058Z,3.36
2018-03-24T06:17:07.955Z,3.47
2018-03-24T06:18:07.839Z,3.34
2018-03-24T06:19:07.734Z,3.44
2018-03-24T06:20:07.633Z,3.45
2018-03-24T06:21:07.541Z,3.53
2018-03-24T06:22:07.464Z,3.58
2018-03-24T06:23:07.320Z,3.55
2018-03-24T06:24:07.217Z,3.42
2018-03-24T06:25:07.114Z,3.50
2018-03-24T06:26:07.015Z,3.50
2018-03-24T06:27:06.896Z,3.55
2018-03-24T06:28:06.793Z,3.60
2018-03-24T06:29:06.689Z,3.48
2018-03-24T06:30:06.586Z,3.58
2018-03-24T06:31:06.488Z,3.55
2018-03-24T06:32:06.379Z,3.60
2018-03-24T06:33:06.276Z,3.56
2018-03-24T06:34:06.175Z,3.59
2018-03-24T06:35:06.058Z,3.55
2018-03-24T06:36:05.953Z,3.56
2018-03-24T06:37:05.852Z,3.68
2018-03-24T06:38:05.756Z,3.70
2018-03-24T06:39:05.643Z,3.69
2018-03-24T06:40:05.539Z,3.69
2018-03-24T06:41:05.436Z,3.66
2018-03-24T06:42:05.333Z,3.73
2018-03-24T06:43:05.242Z,3.76
2018-03-24T06:44:05.126Z,3.92
2018-03-24T06:45:05.022Z,3.87
2018-03-24T06:46:04.908Z,3.86
2018-03-24T06:47:04.805Z,3.91
2018-03-24T06:48:04.701Z,3.99
2018-03-24T06:49:04.598Z,3.98
2018-03-24T06:50:04.495Z,4.01
2018-03-24T06:51:04.391Z,4.04
2018-03-24T06:52:04.288Z,4.12
2018-03-24T06:53:04.185Z,4.24
2018-03-24T06:54:04.081Z,4.28
2018-03-24T06:55:03.978Z,4.14
2018-03-24T06:56:03.875Z,4.30
2018-03-24T06:57:03.774Z,4.30
2018-03-24T06:58:03.656Z,4.32
2018-03-24T06:59:03.551Z,4.34
2018-03-24T07:00:03.448Z,4.28
2018-03-24T07:01:03.344Z,4.24
2018-03-24T07:02:03.241Z,4.26
2018-03-24T07:03:03.138Z,4.24
2018-03-24T07:04:03.035Z,4.31
2018-03-24T07:05:02.931Z,4.42
2018-03-24T07:06:02.829Z,4.31
2018-03-24T07:07:02.728Z,4.17
2018-03-24T07:08:02.621Z,4.24
2018-03-24T07:09:02.519Z,4.17
2018-03-24T07:10:02.428Z,4.14
2018-03-24T07:11:02.312Z,4.14
2018-03-24T07:12:02.208Z,4.24
2018-03-24T07:13:02.106Z,4.31
2018-03-24T07:14:02.002Z,4.19
2018-03-24T07:15:01.898Z,4.24
2018-03-24T07:16:01.784Z,4.23
2018-03-24T07:17:01.681Z,4.19
2018-03-24T07:18:01.579Z,4.37
2018-03-24T07:19:01.475Z,4.44
2018-03-24T07:20:01.371Z,4.55
2018-03-24T07:21:01.267Z,4.58
2018-03-24T07:22:01.164Z,4.58
2018-03-24T07:23:01.060Z,4.66
2018-03-24T07:24:00.957Z,4.73
2018-03-24T07:25:00.859Z,4.60
2018-03-24T07:26:00.751Z,4.56
2018-03-24T07:27:00.646Z,4.60
2018-03-24T07:28:00.544Z,4.70
2018-03-24T07:29:00.482Z,4.55
2018-03-24T07:30:00.337Z,4.60
2018-03-24T07:31:00.232Z,4.68
2018-03-24T07:32:00.135Z,4.70
2018-03-24T07:33:00.032Z,4.71
2018-03-24T07:33:59.924Z,4.68
2018-03-24T07:34:59.820Z,4.63
2018-03-24T07:35:59.721Z,4.63
2018-03-24T07:36:59.614Z,4.68
2018-03-24T07:37:59.510Z,4.74
2018-03-24T07:38:59.407Z,4.89
2018-03-24T07:39:59.303Z,4.80
2018-03-24T07:40:59.200Z,4.90
2018-03-24T07:41:59.097Z,5.02
2018-03-24T07:42:58.994Z,5.00
2018-03-24T07:43:58.889Z,5.14
2018-03-24T07:44:58.787Z,5.14
2018-03-24T07:45:58.684Z,5.26
2018-03-24T07:46:58.580Z,5.21
2018-03-24T07:47:58.477Z,5.21
2018-03-24T07:48:58.379Z,5.25
2018-03-24T07:49:58.270Z,5.30
2018-03-24T07:50:58.167Z,5.14
2018-03-24T07:51:58.066Z,5.07
2018-03-24T07:52:57.960Z,5.15
2018-03-24T07:53:57.858Z,5.07
2018-03-24T07:54:57.753Z,5.02
2018-03-24T07:55:57.651Z,5.02
2018-03-24T07:56:57.552Z,5.10
2018-03-24T07:57:57.443Z,5.05
2018-03-24T07:58:57.340Z,5.00
2018-03-24T07:59:57.239Z,5.14
2018-03-24T08:00:57.140Z,5.23
2018-03-24T08:01:57.042Z,5.33
2018-03-24T08:02:56.939Z,5.48
2018-03-24T08:03:56.842Z,5.64
2018-03-24T08:04:56.732Z,5.69
2018-03-24T08:05:56.629Z,5.76
2018-03-24T08:06:56.525Z,5.91
2018-03-24T08:07:56.421Z,5.87
2018-03-24T08:08:56.318Z,5.94
2018-03-24T08:09:56.215Z,5.80
2018-03-24T08:10:56.112Z,5.87
2018-03-24T08:11:56.009Z,5.82
2018-03-24T08:12:55.910Z,5.82
2018-03-24T08:13:55.802Z,5.80
2018-03-24T08:14:55.699Z,5.91
2018-03-24T08:15:55.596Z,5.69
2018-03-24T08:16:55.538Z,5.71
2018-03-24T08:17:55.402Z,5.75
2018-03-24T08:18:55.300Z,5.66
2018-03-24T08:19:55.200Z,5.48
2018-03-24T08:20:55.093Z,5.65
2018-03-24T08:21:54.989Z,5.73
2018-03-24T08:22:54.889Z,5.69
2018-03-24T08:23:54.783Z,5.71
2018-03-24T08:24:54.679Z,5.79
2018-03-24T08:25:54.576Z,5.90
2018-03-24T08:26:54.473Z,6.02
2018-03-24T08:27:54.381Z,6.04
2018-03-24T08:28:54.279Z,6.14
2018-03-24T08:29:54.174Z,6.17
2018-03-24T08:30:54.071Z,6.24
2018-03-24T08:31:53.968Z,6.28
2018-03-24T08:32:53.864Z,6.27
2018-03-24T08:33:53.762Z,6.33
2018-03-24T08:34:53.658Z,6.16
2018-03-24T08:35:53.555Z,6.30
2018-03-24T08:36:53.464Z,6.09
2018-03-24T08:37:53.361Z,5.98
2018-03-24T08:38:53.258Z,5.97
2018-03-24T08:39:53.161Z,6.08
2018-03-24T08:40:53.052Z,6.26
2018-03-24T08:41:52.948Z,6.36
2018-03-24T08:42:52.847Z,6.45
2018-03-24T08:43:52.741Z,6.45
2018-03-24T08:44:52.652Z,6.60
2018-03-24T08:45:52.548Z,6.45
2018-03-24T08:46:52.463Z,6.54
2018-03-24T08:47:52.340Z,6.63
2018-03-24T08:48:52.236Z,6.75
2018-03-24T08:49:52.133Z,6.88
2018-03-24T08:50:52.030Z,6.84
2018-03-24T08:51:51.981Z,7.07
2018-03-24T08:52:51.836Z,7.36
2018-03-24T08:53:51.733Z,7.36
2018-03-24T08:54:51.631Z,7.51
2018-03-24T08:55:51.526Z,7.51
2018-03-24T08:56:51.424Z,7.45
2018-03-24T08:57:51.332Z,7.36
2018-03-24T08:58:51.229Z,7.11
2018-03-24T08:59:51.125Z,7.06
2018-03-24T09:00:51.022Z,7.06
2018-03-24T09:01:50.920Z,6.96
2018-03-24T09:02:50.828Z,6.97
2018-03-24T09:03:50.726Z,6.93
2018-03-24T09:04:50.622Z,6.81
2018-03-24T09:05:50.518Z,6.85
2018-03-24T09:06:50.434Z,6.60
2018-03-24T09:07:50.323Z,6.66
2018-03-24T09:08:50.245Z,6.81
2018-03-24T09:09:50.119Z,6.81
2018-03-24T09:10:50.014Z,6.97
2018-03-24T09:11:49.923Z,6.96
2018-03-24T09:12:49.820Z,6.77
2018-03-24T09:13:49.719Z,6.77
2018-03-24T09:14:49.614Z,6.88
2018-03-24T09:15:49.511Z,6.97
2018-03-24T09:16:49.419Z,7.03
2018-03-24T09:17:49.316Z,7.21
2018-03-24T09:18:49.212Z,7.28
2018-03-24T09:19:49.109Z,7.13
2018-03-24T09:20:49.021Z,6.89
2018-03-24T09:21:48.916Z,6.84
2018-03-24T09:22:48.812Z,6.85
2018-03-24T09:23:48.959Z,6.74
2018-03-24T09:24:48.617Z,6.85
2018-03-24T09:25:48.514Z,6.96
2018-03-24T09:26:48.410Z,6.93
2018-03-24T09:27:48.308Z,6.92
2018-03-24T09:28:48.205Z,6.99
2018-03-24T09:29:48.114Z,7.06
2018-03-24T09:30:48.011Z,7.11
2018-03-24T09:31:47.908Z,7.33
2018-03-24T09:32:47.805Z,7.57
2018-03-24T09:33:47.713Z,7.91
2018-03-24T09:34:47.609Z,7.91
2018-03-24T09:35:47.506Z,7.98
2018-03-24T09:36:47.402Z,7.90
2018-03-24T09:37:47.312Z,7.63
2018-03-24T09:38:47.209Z,7.77
2018-03-24T09:39:47.106Z,7.77
2018-03-24T09:40:47.003Z,7.79
2018-03-24T09:41:46.911Z,7.63
2018-03-24T09:42:46.808Z,7.80
2018-03-24T09:43:46.704Z,7.58
2018-03-24T09:44:46.614Z,7.60
2018-03-24T09:45:46.512Z,7.58
2018-03-24T09:46:46.409Z,7.70
2018-03-24T09:47:46.305Z,7.67
2018-03-24T09:48:46.213Z,7.72
2018-03-24T09:49:46.110Z,7.76
2018-03-24T09:50:46.006Z,7.53
2018-03-24T09:51:45.916Z,7.50
2018-03-24T09:52:45.872Z,7.72
2018-03-24T09:53:45.710Z,7.97
2018-03-24T09:54:45.607Z,7.95
2018-03-24T09:55:45.515Z,7.83
2018-03-24T09:56:45.410Z,7.75
2018-03-24T09:57:45.325Z,7.58
2018-03-24T09:58:45.219Z,7.58
2018-03-24T09:59:45.120Z,7.61
2018-03-24T10:00:45.012Z,7.83
2018-03-24T10:01:44.920Z,8.09
2018-03-24T10:02:44.816Z,7.85
2018-03-24T10:03:44.713Z,7.63
2018-03-24T10:04:44.625Z,7.58
2018-03-24T10:05:44.520Z,7.57
2018-03-24T10:06:44.417Z,7.57
2018-03-24T10:07:44.325Z,7.67
2018-03-24T10:08:44.222Z,7.93
2018-03-24T10:09:44.118Z,7.93
2018-03-24T10:10:44.016Z,7.60
2018-03-24T10:11:43.925Z,7.61
2018-03-24T10:12:43.822Z,8.05
2018-03-24T10:13:43.730Z,7.97
2018-03-24T10:14:43.627Z,7.97
2018-03-24T10:15:43.523Z,8.16
2018-03-24T10:16:43.475Z,8.49
2018-03-24T10:17:43.330Z,8.48
2018-03-24T10:18:43.228Z,8.26
2018-03-24T10:19:43.123Z,8.24
2018-03-24T10:20:43.032Z,8.03
2018-03-24T10:21:42.927Z,7.93
2018-03-24T10:22:42.826Z,7.93
2018-03-24T10:23:42.738Z,7.98
2018-03-24T10:24:42.632Z,8.18
2018-03-24T10:25:42.528Z,8.28
2018-03-24T10:26:42.492Z,8.51
2018-03-24T10:27:42.347Z,8.70
2018-03-24T10:28:42.232Z,8.44
2018-03-24T10:29:42.140Z,8.53
2018-03-24T10:30:42.036Z,8.53
2018-03-24T10:31:41.945Z,8.56
2018-03-24T10:32:41.842Z,8.31
2018-03-24T10:33:41.738Z,8.06
2018-03-24T10:34:41.649Z,8.01
2018-03-24T10:35:41.545Z,7.88
2018-03-24T10:36:41.444Z,7.80
2018-03-24T10:37:41.355Z,7.95
2018-03-24T10:38:41.248Z,7.98
2018-03-24T10:39:41.145Z,7.90
2018-03-24T10:40:41.054Z,8.09
2018-03-24T10:41:40.949Z,7.88
2018-03-24T10:42:40.859Z,8.08
2018-03-24T10:43:40.755Z,8.09
2018-03-24T10:44:40.653Z,7.87
2018-03-24T10:45:40.562Z,7.82
2018-03-24T10:46:40.459Z,7.85
2018-03-24T10:47:40.355Z,7.57
2018-03-24T10:48:40.264Z,7.61
2018-03-24T10:49:40.160Z,7.53
2018-03-24T10:50:40.057Z,7.70
2018-03-24T10:51:39.967Z,7.63
2018-03-24T10:52:39.864Z,7.63
2018-03-24T10:53:39.760Z,7.61
2018-03-24T10:54:39.669Z,7.45
2018-03-24T10:55:39.565Z,7.53
2018-03-24T10:56:39.462Z,7.57
2018-03-24T10:57:39.373Z,7.54
2018-03-24T10:58:39.269Z,7.66
2018-03-24T10:59:39.165Z,7.75
2018-03-24T11:00:39.089Z,7.73
2018-03-24T11:01:38.972Z,7.76
2018-03-24T11:02:38.867Z,7.91
2018-03-24T11:03:38.767Z,8.01
2018-03-24T11:04:38.675Z,8.01
2018-03-24T11:05:38.567Z,8.16
2018-03-24T11:06:38.468Z,8.30
2018-03-24T11:07:38.377Z,8.48
2018-03-24T11:08:38.272Z,8.55
2018-03-24T11:09:38.169Z,8.64
2018-03-24T11:10:38.084Z,8.84
2018-03-24T11:11:37.976Z,8.97
2018-03-24T11:12:37.873Z,8.94
2018-03-24T11:13:37.781Z,8.89
2018-03-24T11:14:37.677Z,8.79
2018-03-24T11:15:37.574Z,8.52
2018-03-24T11:16:37.485Z,8.38
2018-03-24T11:17:37.381Z,8.31
2018-03-24T11:18:37.277Z,8.51
2018-03-24T11:19:37.186Z,8.63
2018-03-24T11:20:37.083Z,8.66
2018-03-24T11:21:36.980Z,8.49
2018-03-24T11:22:36.890Z,8.52
2018-03-24T11:23:36.786Z,8.76
2018-03-24T11:24:36.683Z,8.85
2018-03-24T11:25:36.604Z,8.66
2018-03-24T11:26:36.488Z,8.31
2018-03-24T11:27:36.384Z,8.52
2018-03-24T11:28:36.294Z,8.41
2018-03-24T11:29:36.190Z,8.33
2018-03-24T11:30:36.098Z,8.13
2018-03-24T11:31:35.996Z,7.95
2018-03-24T11:32:35.893Z,7.77
2018-03-24T11:33:35.803Z,7.60
2018-03-24T11:34:35.700Z,7.80
2018-03-24T11:35:35.597Z,7.87
2018-03-24T11:36:35.505Z,8.03
2018-03-24T11:37:35.401Z,8.34
2018-03-24T11:38:35.297Z,8.61
2018-03-24T11:39:35.208Z,8.70
2018-03-24T11:40:35.105Z,8.79
2018-03-24T11:41:35.003Z,8.79
2018-03-24T11:42:34.909Z,8.56
2018-03-24T11:43:34.808Z,8.20
2018-03-24T11:44:34.703Z,8.08
2018-03-24T11:45:34.615Z,7.98
2018-03-24T11:46:34.509Z,8.05
2018-03-24T11:47:34.408Z,7.85
2018-03-24T11:48:34.316Z,7.95
2018-03-24T11:49:34.211Z,7.97
2018-03-24T11:50:34.108Z,8.15
2018-03-24T11:51:34.018Z,8.31
2018-03-24T11:52:33.917Z,8.61
2018-03-24T11:53:33.811Z,8.87
2018-03-24T11:54:33.719Z,9.00
2018-03-24T11:55:33.616Z,9.26
2018-03-24T11:56:33.526Z,9.34
2018-03-24T11:57:33.423Z,9.46
2018-03-24T11:58:33.321Z,9.61
2018-03-24T11:59:33.217Z,9.74
2018-03-24T12:00:33.125Z,9.65
2018-03-24T12:01:33.022Z,9.37
2018-03-24T12:02:32.931Z,9.03
2018-03-24T12:03:32.829Z,8.95
2018-03-24T12:04:32.725Z,8.87
2018-03-24T12:05:32.633Z,8.66
2018-03-24T12:06:32.530Z,8.82
2018-03-24T12:07:32.428Z,9.00
2018-03-24T12:08:32.336Z,9.21
2018-03-24T12:09:32.234Z,9.32
2018-03-24T12:10:32.141Z,9.19
2018-03-24T12:11:32.038Z,9.29
2018-03-24T12:12:31.936Z,9.04
2018-03-24T12:13:31.844Z,8.64
2018-03-24T12:14:31.742Z,8.49
2018-03-24T12:15:31.650Z,8.27
2018-03-24T12:16:31.546Z,8.37
2018-03-24T12:17:31.446Z,8.45
2018-03-24T12:18:31.354Z,8.46
2018-03-24T12:19:31.250Z,8.49
2018-03-24T12:20:31.158Z,8.58
2018-03-24T12:21:31.060Z,8.64
2018-03-24T12:22:30.952Z,8.79
2018-03-24T12:23:30.867Z,8.76
2018-03-24T12:24:30.758Z,8.76
2018-03-24T12:25:30.669Z,8.52
2018-03-24T12:26:30.565Z,8.52
2018-03-24T12:27:30.474Z,8.58
2018-03-24T12:28:30.370Z,8.58
2018-03-24T12:29:30.266Z,8.61
2018-03-24T12:30:30.166Z,8.91
2018-03-24T12:31:30.072Z,8.99
2018-03-24T12:32:29.969Z,9.03
2018-03-24T12:33:29.878Z,8.99
2018-03-24T12:34:29.775Z,8.91
2018-03-24T12:35:29.672Z,8.82
2018-03-24T12:36:29.580Z,8.82
2018-03-24T12:37:29.477Z,8.85
2018-03-24T12:38:29.374Z,8.92
2018-03-24T12:39:29.283Z,8.97
2018-03-24T12:40:29.179Z,8.97
2018-03-24T12:41:29.089Z,9.04
2018-03-24T12:42:28.985Z,9.29
2018-03-24T12:43:28.883Z,9.37
2018-03-24T12:44:28.794Z,9.26
2018-03-24T12:45:28.688Z,9.21
2018-03-24T12:46:28.597Z,9.28
2018-03-24T12:47:28.493Z,9.47
2018-03-24T12:48:28.403Z,9.41
2018-03-24T12:49:28.300Z,9.16
2018-03-24T12:50:28.202Z,9.02
2018-03-24T12:51:28.106Z,8.71
2018-03-24T12:52:28.002Z,8.89
2018-03-24T12:53:27.899Z,8.87
2018-03-24T12:54:27.809Z,9.02
2018-03-24T12:55:27.705Z,8.99
2018-03-24T12:56:27.614Z,8.92
2018-03-24T12:57:27.510Z,9.03
2018-03-24T12:58:27.407Z,9.02
2018-03-24T12:59:27.316Z,9.04
2018-03-24T13:00:27.262Z,9.06
2018-03-24T13:01:27.172Z,9.10
2018-03-24T13:02:27.019Z,9.13
2018-03-24T13:03:26.916Z,9.31
2018-03-24T13:04:26.826Z,9.40
2018-03-24T13:05:26.721Z,9.50
2018-03-24T13:06:26.619Z,9.34
2018-03-24T13:07:26.527Z,9.50
2018-03-24T13:08:26.424Z,9.61
2018-03-24T13:09:26.340Z,9.41
2018-03-24T13:10:26.230Z,9.10
2018-03-24T13:11:26.138Z,8.99
2018-03-24T13:12:26.035Z,8.74
2018-03-24T13:13:25.933Z,8.70
2018-03-24T13:14:25.845Z,8.73
2018-03-24T13:15:25.738Z,8.63
2018-03-24T13:16:25.648Z,8.63
2018-03-24T13:17:25.544Z,8.85